createdAt,value
2023-01-18T00:00:20.432Z,8.80
2023-01-18T00:04:22.115Z,4.97
2023-01-18T00:08:23.714Z,9.32
2023-01-18T00:12:25.415Z,7.10
2023-01-18T00:16:27.613Z,5.80
2023-01-18T00:21:12.294Z,7.72
2023-01-18T00:25:14.061Z,7.53
2023-01-18T00:29:16.136Z,5.28
2023-01-18T00:33:17.677Z,6.00
2023-01-18T00:37:19.238Z,5.45
2023-01-18T00:41:21.922Z,6.45
2023-01-18T00:45:23.467Z,4.38
2023-01-18T00:49:24.986Z,5.57
2023-01-18T00:53:27.009Z,6.40
2023-01-18T00:57:28.576Z,5.00
2023-01-18T01:01:30.543Z,8.25
2023-01-18T01:05:50.952Z,5.53
2023-01-18T01:09:52.553Z,6.80
2023-01-18T01:14:15.621Z,5.80
2023-01-18T01:18:35.995Z,7.97
2023-01-18T01:22:56.690Z,8.15
2023-01-18T01:26:58.488Z,5.28
2023-01-18T01:31:01.732Z,6.97
2023-01-18T01:35:03.451Z,7.03
2023-01-18T01:39:07.130Z,5.47
2023-01-18T01:43:14.713Z,7.22
2023-01-18T01:47:31.605Z,6.63
2023-01-18T01:51:35.896Z,8.73
2023-01-18T01:55:39.248Z,6.10
2023-01-18T01:59:46.899Z,10.10
2023-01-18T02:03:48.653Z,7.18
2023-01-18T02:07:50.940Z,6.88
2023-01-18T02:11:54.381Z,5.93
2023-01-18T02:16:17.670Z,10.70
2023-01-18T02:20:44.113Z,6.20
2023-01-18T02:25:10.433Z,7.80
2023-01-18T02:29:30.140Z,6.53
2023-01-18T02:33:43.616Z,9.40
2023-01-18T02:37:51.842Z,6.90
2023-01-18T02:42:19.790Z,12.43
2023-01-18T02:46:35.542Z,6.43
2023-01-18T02:50:37.453Z,6.30
2023-01-18T02:54:40.699Z,11.23
2023-01-18T02:58:47.809Z,6.80
2023-01-18T03:02:51.245Z,5.82
2023-01-18T03:07:01.414Z,7.32
2023-01-18T03:11:07.891Z,7.13
2023-01-18T03:15:29.996Z,10.55
2023-01-18T03:19:59.873Z,7.07
2023-01-18T03:24:04.094Z,6.82
2023-01-18T03:28:29.391Z,6.05
2023-01-18T03:32:53.153Z,16.77
2023-01-18T03:36:58.367Z,7.90
2023-01-18T03:41:01.721Z,7.47
2023-01-18T03:45:15.545Z,10.75
2023-01-18T03:49:17.943Z,6.15
2023-01-18T03:53:45.917Z,7.30
2023-01-18T03:57:55.225Z,7.30
2023-01-18T04:01:56.953Z,5.32
2023-01-18T04:06:00.737Z,6.63
2023-01-18T04:10:02.480Z,5.13
2023-01-18T04:14:04.089Z,5.57
2023-01-18T04:18:06.523Z,9.40
2023-01-18T04:22:09.782Z,6.28
2023-01-18T04:26:13.475Z,9.95
2023-01-18T04:30:15.473Z,9.85
2023-01-18T04:34:16.995Z,10.10
2023-01-18T04:38:18.544Z,6.50
2023-01-18T04:42:20.065Z,6.93
2023-01-18T04:46:21.764Z,7.78
2023-01-18T04:50:23.847Z,11.27
2023-01-18T04:54:25.555Z,7.27
2023-01-18T04:58:27.072Z,10.40
2023-01-18T05:02:28.689Z,7.22
2023-01-18T05:06:30.311Z,8.25
2023-01-18T05:10:33.605Z,11.85
2023-01-18T05:14:35.179Z,6.72
2023-01-18T05:18:36.769Z,8.48
2023-01-18T05:22:38.616Z,8.65
2023-01-18T05:26:40.230Z,10.77
2023-01-18T05:30:42.907Z,7.00
2023-01-18T05:34:44.527Z,8.82
2023-01-18T05:38:46.836Z,10.80
2023-01-18T05:42:48.398Z,7.40
2023-01-18T05:46:50.015Z,6.93
2023-01-18T05:50:52.003Z,11.07
2023-01-18T05:54:53.609Z,8.47
2023-01-18T05:58:55.327Z,7.13
2023-01-18T06:02:57.184Z,12.32
2023-01-18T06:06:59.124Z,9.60
2023-01-18T06:11:31.287Z,9.48
2023-01-18T06:15:33.893Z,9.38
2023-01-18T06:19:36.996Z,12.05
2023-01-18T06:23:38.768Z,8.77
2023-01-18T06:27:40.900Z,9.93
2023-01-18T06:31:42.764Z,11.65
2023-01-18T06:35:44.807Z,8.43
2023-01-18T06:39:46.702Z,8.02
2023-01-18T06:43:50.298Z,10.00
2023-01-18T06:47:52.623Z,7.55
2023-01-18T06:51:54.201Z,6.82
2023-01-18T06:55:58.222Z,8.73
2023-01-18T07:00:02.342Z,7.00
2023-01-18T07:04:04.076Z,10.10
2023-01-18T07:08:06.046Z,6.85
2023-01-18T07:12:08.439Z,9.13
2023-01-18T07:16:17.574Z,9.03
2023-01-18T07:20:19.973Z,8.35
2023-01-18T07:24:22.434Z,7.68
2023-01-18T07:28:24.074Z,7.20
2023-01-18T07:32:25.833Z,6.93
2023-01-18T07:36:31.325Z,7.50
2023-01-18T07:40:33.796Z,5.43
2023-01-18T07:44:35.626Z,6.43
2023-01-18T07:48:39.105Z,8.80
2023-01-18T07:52:41.426Z,7.30
2023-01-18T07:56:43.000Z,8.65
2023-01-18T08:00:45.592Z,6.30
2023-01-18T08:04:51.835Z,12.23
2023-01-18T08:08:57.036Z,9.30
2023-01-18T08:12:59.314Z,4.85
2023-01-18T08:17:01.082Z,9.93
2023-01-18T08:21:03.411Z,8.30
2023-01-18T08:25:05.483Z,8.60
2023-01-18T08:29:07.082Z,8.32
2023-01-18T08:33:09.075Z,5.22
2023-01-18T08:37:11.918Z,5.73
2023-01-18T08:41:13.471Z,10.27
2023-01-18T08:45:15.954Z,7.38
2023-01-18T08:49:17.668Z,7.00
2023-01-18T08:53:19.631Z,4.55
2023-01-18T08:57:21.240Z,6.60
2023-01-18T09:05:27.170Z,6.50
2023-01-18T09:09:28.742Z,6.40
2023-01-18T09:13:32.387Z,8.05
2023-01-18T09:17:34.252Z,6.55
2023-01-18T09:21:36.111Z,4.47
2023-01-18T09:25:37.973Z,8.10
2023-01-18T09:29:39.958Z,10.38
2023-01-18T09:33:51.138Z,9.27
2023-01-18T09:37:55.368Z,8.48
2023-01-18T09:46:02.348Z,5.95
2023-01-18T09:50:13.468Z,6.13
2023-01-18T09:54:23.392Z,6.97
2023-01-18T09:58:46.455Z,7.93
2023-01-18T10:02:53.222Z,5.00
2023-01-18T10:07:01.592Z,6.43
2023-01-18T10:11:10.588Z,5.75
2023-01-18T10:15:31.890Z,7.82
2023-01-18T10:19:33.586Z,6.57
2023-01-18T10:23:44.379Z,4.85
2023-01-18T10:28:00.614Z,5.70
2023-01-18T10:32:09.005Z,5.32
2023-01-18T10:36:13.668Z,6.18
2023-01-18T10:40:15.534Z,6.65
2023-01-18T10:44:17.077Z,6.15
2023-01-18T10:48:25.334Z,7.07
2023-01-18T10:52:30.494Z,5.80
2023-01-18T10:56:33.659Z,6.97
2023-01-18T11:00:35.635Z,5.45
2023-01-18T11:04:37.356Z,4.93
2023-01-18T11:08:39.025Z,9.18
2023-01-18T11:12:43.474Z,6.40
2023-01-18T11:16:58.264Z,7.93
2023-01-18T11:21:00.268Z,9.85
2023-01-18T11:25:02.210Z,4.95
2023-01-18T11:29:06.883Z,5.63
2023-01-18T11:33:18.660Z,7.53
2023-01-18T11:37:36.180Z,10.60
2023-01-18T11:41:38.649Z,5.90
2023-01-18T11:45:48.190Z,5.22
2023-01-18T11:50:01.008Z,3.72
2023-01-18T11:54:22.792Z,4.95
2023-01-18T11:58:29.793Z,3.80
2023-01-18T12:02:37.508Z,2.95
2023-01-18T12:06:54.568Z,6.25
2023-01-18T12:11:06.054Z,4.75
2023-01-18T12:15:10.657Z,6.72
2023-01-18T12:19:36.875Z,6.50
2023-01-18T12:23:44.580Z,7.18
2023-01-18T12:28:01.254Z,5.00
2023-01-18T12:32:15.771Z,8.48
2023-01-18T12:36:26.078Z,5.75
2023-01-18T12:40:35.026Z,7.10
2023-01-18T12:44:53.963Z,6.05
2023-01-18T12:49:02.188Z,7.75
2023-01-18T12:53:14.818Z,7.68
2023-01-18T12:57:17.855Z,10.30
2023-01-18T13:01:22.751Z,7.45
2023-01-18T13:06:01.439Z,9.40
2023-01-18T13:10:08.247Z,9.32
2023-01-18T13:14:33.612Z,15.40
2023-01-18T13:23:50.506Z,9.82
2023-01-18T13:28:03.588Z,8.52
2023-01-18T13:36:23.114Z,15.27
2023-01-18T13:40:34.680Z,10.40
2023-01-18T13:44:45.977Z,10.20
2023-01-18T13:48:57.496Z,13.25
2023-01-18T13:53:18.434Z,10.48
2023-01-18T13:57:21.124Z,8.63
2023-01-18T14:01:25.205Z,11.07
2023-01-18T14:10:31.848Z,9.70
2023-01-18T14:14:51.617Z,11.93
2023-01-18T14:18:58.496Z,11.60
2023-01-18T14:23:25.252Z,10.38
2023-01-18T14:27:32.632Z,11.18
2023-01-18T14:31:38.435Z,10.52
2023-01-18T14:35:51.885Z,9.05
2023-01-18T14:40:04.493Z,9.80
2023-01-18T14:44:19.008Z,9.75
2023-01-18T14:48:23.221Z,9.05
2023-01-18T14:52:30.487Z,11.02
2023-01-18T14:56:34.867Z,13.95
2023-01-18T15:00:46.276Z,13.63
2023-01-18T15:04:49.574Z,10.18
2023-01-18T15:08:51.235Z,10.57
2023-01-18T15:12:57.810Z,13.13
2023-01-18T15:17:01.830Z,12.43
2023-01-18T15:21:06.431Z,14.02
2023-01-18T15:25:18.669Z,14.55
2023-01-18T15:29:26.033Z,11.93
2023-01-18T15:33:28.971Z,13.07
2023-01-18T15:37:33.921Z,8.20
2023-01-18T15:41:35.794Z,11.90
2023-01-18T15:45:40.380Z,8.15
2023-01-18T15:49:49.038Z,11.27
2023-01-18T15:53:56.522Z,12.63
2023-01-18T15:58:05.648Z,10.98
2023-01-18T16:02:21.567Z,10.57
2023-01-18T16:06:23.350Z,12.00
2023-01-18T16:10:30.606Z,13.07
2023-01-18T16:14:37.212Z,10.48
2023-01-18T16:18:38.797Z,14.30
2023-01-18T16:22:40.589Z,10.02
2023-01-18T16:26:43.412Z,12.68
2023-01-18T16:34:58.970Z,11.30
2023-01-18T16:39:01.099Z,11.82
2023-01-18T16:43:19.666Z,11.43
2023-01-18T16:47:21.541Z,18.15
2023-01-18T16:51:24.785Z,15.75
2023-01-18T16:55:27.221Z,19.15
2023-01-18T16:59:29.103Z,16.58
2023-01-18T17:03:30.701Z,17.20
2023-01-18T17:07:32.264Z,20.83
2023-01-18T17:11:34.290Z,18.95
2023-01-18T17:15:36.701Z,11.35
2023-01-18T17:19:40.568Z,13.95
2023-01-18T17:23:42.476Z,14.15
2023-01-18T17:27:44.985Z,17.60
2023-01-18T17:31:52.955Z,21.63
2023-01-18T17:35:55.347Z,14.93
2023-01-18T17:40:12.205Z,22.17
2023-01-18T17:44:20.552Z,16.15
2023-01-18T17:48:25.879Z,18.02
2023-01-18T17:52:28.061Z,17.67
2023-01-18T17:56:30.022Z,12.73
2023-01-18T18:00:31.630Z,15.63
2023-01-18T18:04:33.255Z,13.43
2023-01-18T18:08:35.471Z,16.70
2023-01-18T18:12:45.825Z,15.38
2023-01-18T18:16:51.748Z,14.52
2023-01-18T18:20:59.001Z,16.30
2023-01-18T18:25:00.706Z,16.48
2023-01-18T18:29:02.351Z,13.77
2023-01-18T18:33:03.950Z,15.55
2023-01-18T18:37:05.532Z,13.52
2023-01-18T18:41:08.601Z,18.15
2023-01-18T18:45:10.883Z,13.00
2023-01-18T18:49:12.414Z,14.25
2023-01-18T18:53:14.527Z,14.10
2023-01-18T18:57:16.170Z,18.05
2023-01-18T19:01:22.874Z,14.57
2023-01-18T19:05:24.550Z,14.57
2023-01-18T19:09:26.132Z,16.17
2023-01-18T19:13:27.725Z,14.45
2023-01-18T19:17:31.079Z,13.52
2023-01-18T19:21:33.349Z,14.70
2023-01-18T19:25:38.072Z,13.95
2023-01-18T19:29:39.657Z,13.73
2023-01-18T19:33:41.317Z,14.40
2023-01-18T19:37:43.345Z,11.18
2023-01-18T19:41:45.108Z,10.47
2023-01-18T19:45:46.819Z,10.30
2023-01-18T19:49:48.485Z,10.73
2023-01-18T19:53:52.652Z,13.27
2023-01-18T19:57:57.867Z,12.05
2023-01-18T20:02:00.272Z,15.50
2023-01-18T20:06:02.004Z,14.63
2023-01-18T20:10:03.922Z,13.18
2023-01-18T20:14:05.578Z,13.77
2023-01-18T20:18:08.753Z,12.90
2023-01-18T20:22:10.876Z,11.70
2023-01-18T20:26:15.369Z,14.07
2023-01-18T20:30:18.181Z,15.48
2023-01-18T20:34:19.875Z,15.35
2023-01-18T20:38:21.454Z,14.80
2023-01-18T20:42:23.068Z,11.35
2023-01-18T20:46:24.735Z,17.08
2023-01-18T20:50:26.492Z,15.63
2023-01-18T20:54:28.103Z,18.63
2023-01-18T20:58:29.791Z,15.85
2023-01-18T21:02:31.532Z,17.98
2023-01-18T21:06:33.466Z,15.17
2023-01-18T21:10:38.749Z,17.43
2023-01-18T21:14:40.439Z,15.70
2023-01-18T21:18:42.210Z,16.25
2023-01-18T21:22:43.827Z,20.45
2023-01-18T21:26:45.369Z,15.25
2023-01-18T21:30:50.542Z,14.88
2023-01-18T21:34:52.105Z,23.27
2023-01-18T21:38:53.796Z,17.17
2023-01-18T21:43:13.907Z,16.25
2023-01-18T21:47:17.644Z,18.13
2023-01-18T21:51:38.287Z,17.73
2023-01-18T21:55:40.244Z,16.02
2023-01-18T21:59:41.776Z,17.10
2023-01-18T22:03:43.440Z,14.30
2023-01-18T22:07:44.974Z,17.63
2023-01-18T22:11:46.529Z,24.73
2023-01-18T22:15:48.149Z,18.25
2023-01-18T22:19:49.733Z,16.27
2023-01-18T22:23:52.203Z,14.95
2023-01-18T22:27:53.784Z,15.43
2023-01-18T22:31:57.092Z,14.15
2023-01-18T22:35:59.661Z,13.20
2023-01-18T22:40:01.240Z,16.23
2023-01-18T22:44:06.547Z,15.70
2023-01-18T22:48:08.160Z,18.33
2023-01-18T22:52:09.758Z,9.75
2023-01-18T22:56:19.643Z,11.77
2023-01-18T23:00:21.204Z,13.18
2023-01-18T23:04:24.421Z,16.58
2023-01-18T23:08:44.602Z,11.90
2023-01-18T23:12:46.165Z,16.45
2023-01-18T23:17:06.393Z,15.52
2023-01-18T23:21:08.059Z,13.57
2023-01-18T23:25:09.816Z,11.65
2023-01-18T23:29:11.488Z,12.90
2023-01-18T23:33:13.054Z,13.93
2023-01-18T23:37:14.578Z,16.10
2023-01-18T23:41:35.053Z,14.05
2023-01-18T23:45:55.449Z,9.57
2023-01-18T23:50:15.626Z,10.65
2023-01-18T23:54:17.851Z,11.13
2023-01-18T23:58:19.470Z,10.23
